createdAt,value
2018-03-23T00:01:58.764Z,5.10
2018-03-23T00:04:27.931Z,4.77
2018-03-23T00:06:57.101Z,4.60
2018-03-23T00:09:26.252Z,4.23
2018-03-23T00:11:55.420Z,5.60
2018-03-23T00:14:24.581Z,3.90
2018-03-23T00:16:53.748Z,4.43
2018-03-23T00:19:22.895Z,4.57
2018-03-23T00:21:52.065Z,5.77
2018-03-23T00:24:21.220Z,8.60
2018-03-23T00:26:50.407Z,5.80
2018-03-23T00:29:19.568Z,6.27
2018-03-23T00:31:48.736Z,5.90
2018-03-23T00:34:17.891Z,8.23
2018-03-23T00:36:47.064Z,5.83
2018-03-23T00:39:16.234Z,5.80
2018-03-23T00:41:45.408Z,4.20
2018-03-23T00:44:14.573Z,5.60
2018-03-23T00:46:43.744Z,4.73
2018-03-23T00:49:12.892Z,4.77
2018-03-23T00:51:42.088Z,3.63
2018-03-23T00:54:11.243Z,6.40
2018-03-23T00:56:40.420Z,6.07
2018-03-23T00:59:09.583Z,6.20
2018-03-23T01:01:38.772Z,5.57
2018-03-23T01:04:07.940Z,6.93
2018-03-23T01:06:37.112Z,7.00
2018-03-23T01:09:06.265Z,4.37
2018-03-23T01:11:35.443Z,4.60
2018-03-23T01:14:04.591Z,6.20
2018-03-23T01:16:33.772Z,5.93
2018-03-23T01:19:02.932Z,5.10
2018-03-23T01:21:32.104Z,7.73
2018-03-23T01:24:01.261Z,6.20
2018-03-23T01:26:30.436Z,5.07
2018-03-23T01:29:00.288Z,5.87
2018-03-23T01:31:29.468Z,9.10
2018-03-23T01:33:58.624Z,4.80
2018-03-23T01:36:27.820Z,4.40
2018-03-23T01:38:57.017Z,6.87
2018-03-23T01:41:26.201Z,4.60
2018-03-23T01:43:55.399Z,4.83
2018-03-23T01:46:24.592Z,4.73
2018-03-23T01:48:53.744Z,5.07
2018-03-23T01:51:22.908Z,8.57
2018-03-23T01:53:52.064Z,4.73
2018-03-23T01:56:21.236Z,5.13
2018-03-23T01:58:50.404Z,5.87
2018-03-23T02:01:19.581Z,5.27
2018-03-23T02:03:48.758Z,7.13
2018-03-23T02:06:17.940Z,6.50
2018-03-23T02:08:47.096Z,7.90
2018-03-23T02:11:16.280Z,6.77
2018-03-23T02:13:45.444Z,6.10
2018-03-23T02:16:14.620Z,9.93
2018-03-23T02:18:43.789Z,8.10
2018-03-23T02:21:12.936Z,9.20
2018-03-23T02:23:42.115Z,7.43
2018-03-23T02:26:11.267Z,5.27
2018-03-23T02:28:40.475Z,7.27
2018-03-23T02:31:09.628Z,6.43
2018-03-23T02:33:38.797Z,6.27
2018-03-23T02:36:07.944Z,5.40
2018-03-23T02:38:37.113Z,5.97
2018-03-23T02:41:06.288Z,8.10
2018-03-23T02:43:35.463Z,8.47
2018-03-23T02:46:04.617Z,9.23
2018-03-23T02:48:33.815Z,11.80
2018-03-23T02:51:02.968Z,9.80
2018-03-23T02:53:32.161Z,11.03
2018-03-23T02:56:01.323Z,7.23
2018-03-23T02:58:30.492Z,7.77
2018-03-23T03:00:59.652Z,11.30
2018-03-23T03:03:28.824Z,10.50
2018-03-23T03:05:57.983Z,10.80
2018-03-23T03:08:27.160Z,9.67
2018-03-23T03:10:56.311Z,11.20
2018-03-23T03:13:25.475Z,9.43
2018-03-23T03:15:54.623Z,7.87
2018-03-23T03:18:23.811Z,9.43
2018-03-23T03:20:52.970Z,10.83
2018-03-23T03:23:22.155Z,9.07
2018-03-23T03:25:51.315Z,13.03
2018-03-23T03:28:20.496Z,12.70
2018-03-23T03:30:49.662Z,10.13
2018-03-23T03:33:18.839Z,12.17
2018-03-23T03:35:47.996Z,13.13
2018-03-23T03:38:17.172Z,12.50
2018-03-23T03:40:46.319Z,15.37
2018-03-23T03:43:15.509Z,11.13
2018-03-23T03:45:44.665Z,13.90
2018-03-23T03:48:13.841Z,10.97
2018-03-23T03:50:42.995Z,10.17
2018-03-23T03:53:12.162Z,12.40
2018-03-23T03:55:41.319Z,12.50
2018-03-23T03:58:10.503Z,9.50
2018-03-23T04:00:39.666Z,10.23
2018-03-23T04:03:08.841Z,15.07
2018-03-23T04:05:38.000Z,15.83
2018-03-23T04:08:07.184Z,11.47
2018-03-23T04:10:36.340Z,13.60
2018-03-23T04:13:05.548Z,13.30
2018-03-23T04:15:34.696Z,11.87
2018-03-23T04:18:03.871Z,13.00
2018-03-23T04:20:33.032Z,12.63
2018-03-23T04:23:02.207Z,11.93
2018-03-23T04:25:31.359Z,12.67
2018-03-23T04:28:00.536Z,10.60
2018-03-23T04:30:29.693Z,10.30
2018-03-23T04:32:58.890Z,10.10
2018-03-23T04:35:28.043Z,11.13
2018-03-23T04:37:57.212Z,14.30
2018-03-23T04:40:26.359Z,12.00
2018-03-23T04:42:55.532Z,10.20
2018-03-23T04:45:24.688Z,11.23
2018-03-23T04:47:53.884Z,14.87
2018-03-23T04:50:23.049Z,11.23
2018-03-23T04:52:52.215Z,11.63
2018-03-23T04:55:21.365Z,12.70
2018-03-23T04:57:50.535Z,11.20
2018-03-23T05:00:19.699Z,11.40
2018-03-23T05:02:48.872Z,11.70
2018-03-23T05:05:18.045Z,13.10
2018-03-23T05:07:47.228Z,12.40
2018-03-23T05:10:16.375Z,12.30
2018-03-23T05:12:45.553Z,11.07
2018-03-23T05:15:14.711Z,16.40
2018-03-23T05:17:43.888Z,19.70
2018-03-23T05:20:13.044Z,19.40
2018-03-23T05:22:42.216Z,10.73
2018-03-23T05:25:11.395Z,10.13
2018-03-23T05:27:40.604Z,12.53
2018-03-23T05:30:09.755Z,10.67
2018-03-23T05:32:38.965Z,13.93
2018-03-23T05:35:08.120Z,14.50
2018-03-23T05:37:37.309Z,18.63
2018-03-23T05:40:06.475Z,17.83
2018-03-23T05:42:36.023Z,14.83
2018-03-23T05:45:05.231Z,14.93
2018-03-23T05:47:34.632Z,12.63
2018-03-23T05:50:04.011Z,13.13
2018-03-23T05:52:33.249Z,15.80
2018-03-23T05:55:02.439Z,20.87
2018-03-23T05:57:31.623Z,20.33
2018-03-23T06:00:00.784Z,15.70
2018-03-23T06:02:29.971Z,14.60
2018-03-23T06:04:59.124Z,17.97
2018-03-23T06:07:28.301Z,14.43
2018-03-23T06:09:57.495Z,13.23
2018-03-23T06:12:26.651Z,21.50
2018-03-23T06:14:55.828Z,22.90
2018-03-23T06:17:24.996Z,21.83
2018-03-23T06:19:54.180Z,24.47
2018-03-23T06:22:23.341Z,22.60
2018-03-23T06:24:52.528Z,21.27
2018-03-23T06:27:21.690Z,19.60
2018-03-23T06:29:50.870Z,19.27
2018-03-23T06:32:20.028Z,23.63
2018-03-23T06:34:49.208Z,25.03
2018-03-23T06:37:18.375Z,25.80
2018-03-23T06:39:47.563Z,21.47
2018-03-23T06:42:16.732Z,22.07
2018-03-23T06:44:45.916Z,20.97
2018-03-23T06:47:15.080Z,19.27
2018-03-23T06:49:44.251Z,21.93
2018-03-23T06:52:13.412Z,21.23
2018-03-23T06:54:47.076Z,22.87
2018-03-23T06:57:16.278Z,23.97
2018-03-23T06:59:45.461Z,26.30
2018-03-23T07:02:14.643Z,23.20
2018-03-23T07:04:43.829Z,23.43
2018-03-23T07:07:12.984Z,23.17
2018-03-23T07:09:42.159Z,28.60
2018-03-23T07:12:11.319Z,23.67
2018-03-23T07:14:40.518Z,22.27
2018-03-23T07:17:09.677Z,20.60
2018-03-23T07:19:38.856Z,21.30
2018-03-23T07:22:08.012Z,24.03
2018-03-23T07:24:37.250Z,23.30
2018-03-23T07:27:06.436Z,20.27
2018-03-23T07:29:35.612Z,23.13
2018-03-23T07:32:04.824Z,21.90
2018-03-23T07:34:34.010Z,18.97
2018-03-23T07:37:03.166Z,22.27
2018-03-23T07:39:32.429Z,23.07
2018-03-23T07:42:01.604Z,27.37
2018-03-23T07:44:30.780Z,21.37
2018-03-23T07:46:59.955Z,23.10
2018-03-23T07:49:29.132Z,22.37
2018-03-23T07:51:58.292Z,21.80
2018-03-23T07:54:27.484Z,17.07
2018-03-23T07:56:56.639Z,21.53
2018-03-23T07:59:25.824Z,17.67
2018-03-23T08:01:54.987Z,21.37
2018-03-23T08:04:24.168Z,20.30
2018-03-23T08:06:53.393Z,18.40
2018-03-23T08:09:22.568Z,20.43
2018-03-23T08:11:51.724Z,22.70
2018-03-23T08:14:20.902Z,19.83
2018-03-23T08:16:50.072Z,20.90
2018-03-23T08:19:19.264Z,18.23
2018-03-23T08:21:48.424Z,19.10
2018-03-23T08:24:17.608Z,19.37
2018-03-23T08:26:46.761Z,20.77
2018-03-23T08:29:15.952Z,20.27
2018-03-23T08:31:45.107Z,24.17
2018-03-23T08:34:14.284Z,19.37
2018-03-23T08:36:43.445Z,17.73
2018-03-23T08:39:12.616Z,12.40
2018-03-23T08:41:41.789Z,14.70
2018-03-23T08:44:10.978Z,17.27
2018-03-23T08:46:40.137Z,15.67
2018-03-23T08:49:09.372Z,15.93
2018-03-23T08:51:38.496Z,13.97
2018-03-23T08:54:07.678Z,17.93
2018-03-23T08:56:36.841Z,16.97
2018-03-23T08:59:06.019Z,19.73
2018-03-23T09:01:35.176Z,19.13
2018-03-23T09:04:04.359Z,16.23
2018-03-23T09:06:33.524Z,15.03
2018-03-23T09:09:02.705Z,20.33
2018-03-23T09:11:31.872Z,21.13
2018-03-23T09:14:01.048Z,18.80
2018-03-23T09:16:30.209Z,21.37
2018-03-23T09:18:59.404Z,19.17
2018-03-23T09:21:28.561Z,20.57
2018-03-23T09:23:57.752Z,19.87
2018-03-23T09:26:26.914Z,22.03
2018-03-23T09:28:56.096Z,29.93
2018-03-23T09:31:25.253Z,20.73
2018-03-23T09:33:54.441Z,18.57
2018-03-23T09:36:23.604Z,16.80
2018-03-23T09:38:52.780Z,19.93
2018-03-23T09:41:21.934Z,16.27
2018-03-23T09:43:51.115Z,17.80
2018-03-23T09:46:20.271Z,17.73
2018-03-23T09:48:49.452Z,23.17
2018-03-23T09:51:18.611Z,19.57
2018-03-23T09:53:47.800Z,22.60
2018-03-23T09:56:16.961Z,21.90
2018-03-23T09:58:46.164Z,23.07
2018-03-23T10:01:15.329Z,15.27
2018-03-23T10:03:44.574Z,14.00
2018-03-23T10:06:13.691Z,17.83
2018-03-23T10:08:42.884Z,10.60
2018-03-23T10:11:12.045Z,17.30
2018-03-23T10:13:41.208Z,14.87
2018-03-23T10:16:10.383Z,20.50
2018-03-23T10:18:39.577Z,21.33
2018-03-23T10:21:08.766Z,15.03
2018-03-23T10:23:37.928Z,11.43
2018-03-23T10:26:07.124Z,14.53
2018-03-23T10:28:36.300Z,14.20
2018-03-23T10:31:05.481Z,14.27
2018-03-23T10:33:34.635Z,11.33
2018-03-23T10:36:03.800Z,7.50
2018-03-23T10:38:32.960Z,5.73
2018-03-23T10:41:02.132Z,5.73
2018-03-23T10:43:31.287Z,8.30
2018-03-23T10:46:00.458Z,8.27
2018-03-23T10:48:29.616Z,6.37
2018-03-23T10:50:58.799Z,7.53
2018-03-23T10:53:27.974Z,13.53
2018-03-23T10:55:57.150Z,10.77
2018-03-23T10:58:26.328Z,8.73
2018-03-23T11:01:01.165Z,10.90
2018-03-23T11:03:30.324Z,11.63
2018-03-23T11:05:59.496Z,9.83
2018-03-23T11:08:28.658Z,11.50
2018-03-23T11:10:57.848Z,10.87
2018-03-23T11:13:27.000Z,11.27
2018-03-23T11:15:56.162Z,7.67
2018-03-23T11:18:25.315Z,9.03
2018-03-23T11:20:54.492Z,11.50
2018-03-23T11:23:23.648Z,10.50
2018-03-23T11:25:52.827Z,13.80
2018-03-23T11:28:21.984Z,12.50
2018-03-23T11:30:51.154Z,13.10
2018-03-23T11:33:20.306Z,18.50
2018-03-23T11:35:49.486Z,16.53
2018-03-23T11:38:18.648Z,23.70
2018-03-23T11:40:47.824Z,20.43
2018-03-23T11:43:16.984Z,21.00
2018-03-23T11:45:46.162Z,23.73
2018-03-23T11:48:15.323Z,22.93
2018-03-23T11:50:44.610Z,25.30
2018-03-23T11:53:13.680Z,24.07
2018-03-23T11:55:42.859Z,19.70
2018-03-23T11:58:12.023Z,26.17
2018-03-23T12:00:41.216Z,24.07
2018-03-23T12:03:10.404Z,24.27
2018-03-23T12:05:39.579Z,25.90
2018-03-23T12:08:08.735Z,22.97
2018-03-23T12:10:37.912Z,22.73
2018-03-23T12:13:07.069Z,24.43
2018-03-23T12:15:36.264Z,21.07
2018-03-23T12:18:05.587Z,21.97
2018-03-23T12:20:34.773Z,31.00
2018-03-23T12:23:03.941Z,23.10
2018-03-23T12:25:33.119Z,23.13
2018-03-23T12:28:02.280Z,23.67
2018-03-23T12:30:31.456Z,26.80
2018-03-23T12:33:00.624Z,25.83
2018-03-23T12:35:29.800Z,30.90
2018-03-23T12:37:59.025Z,28.47
2018-03-23T12:40:28.174Z,28.83
2018-03-23T12:42:57.345Z,29.50
2018-03-23T12:45:26.529Z,28.83
2018-03-23T12:47:55.710Z,29.50
2018-03-23T12:50:24.889Z,30.13
2018-03-23T12:52:54.046Z,28.63
2018-03-23T12:55:23.228Z,32.93
2018-03-23T12:57:52.414Z,32.50
2018-03-23T13:00:21.606Z,33.60
2018-03-23T13:02:50.763Z,29.07
2018-03-23T13:05:19.949Z,31.67
2018-03-23T13:07:49.110Z,31.97
2018-03-23T13:10:18.292Z,34.93
2018-03-23T13:12:47.456Z,32.07
2018-03-23T13:15:16.628Z,32.30
2018-03-23T13:17:45.785Z,33.23
2018-03-23T13:20:14.960Z,32.73
2018-03-23T13:22:44.186Z,32.80
2018-03-23T13:25:13.320Z,30.20
2018-03-23T13:27:42.513Z,33.73
2018-03-23T13:30:11.703Z,35.97
2018-03-23T13:32:40.872Z,30.70
2018-03-23T13:35:10.048Z,31.53
2018-03-23T13:37:39.207Z,36.03
2018-03-23T13:40:08.387Z,33.57
2018-03-23T13:42:37.543Z,35.00
2018-03-23T13:45:06.728Z,35.00
2018-03-23T13:47:36.014Z,34.33
2018-03-23T13:50:05.334Z,35.70
2018-03-23T13:52:34.495Z,33.60
2018-03-23T13:55:03.758Z,35.33
2018-03-23T13:57:32.930Z,34.27
2018-03-23T14:00:02.127Z,35.03
2018-03-23T14:02:31.305Z,32.10
2018-03-23T14:05:01.339Z,34.43
2018-03-23T14:07:30.538Z,41.23
2018-03-23T14:09:59.733Z,37.40
2018-03-23T14:12:28.920Z,44.07
2018-03-23T14:14:58.082Z,46.63
2018-03-23T14:17:27.257Z,53.70
2018-03-23T14:19:56.417Z,56.67
2018-03-23T14:22:25.625Z,52.50
2018-03-23T14:24:54.792Z,57.03
2018-03-23T14:27:23.975Z,64.47
2018-03-23T14:29:53.131Z,57.97
2018-03-23T14:32:22.325Z,58.27
2018-03-23T14:34:51.513Z,64.47
2018-03-23T14:37:20.688Z,66.60
2018-03-23T14:39:49.848Z,66.90
2018-03-23T14:42:19.021Z,67.77
2018-03-23T14:47:21.660Z,68.37
2018-03-23T14:49:50.840Z,70.17
2018-03-23T14:52:20.018Z,70.27
2018-03-23T14:54:49.208Z,68.57
2018-03-23T14:57:18.388Z,74.40
2018-03-23T14:59:47.546Z,78.33
2018-03-23T15:02:16.731Z,85.00
2018-03-23T15:04:45.884Z,85.27
2018-03-23T15:07:15.072Z,79.33
2018-03-23T15:09:44.239Z,70.17
2018-03-23T15:12:13.416Z,89.50
2018-03-23T15:14:42.572Z,88.17
2018-03-23T15:17:11.760Z,89.20
2018-03-23T15:19:40.924Z,96.27
2018-03-23T15:22:10.108Z,91.60
2018-03-23T15:24:39.268Z,93.20
2018-03-23T15:27:08.448Z,96.53
2018-03-23T15:29:37.624Z,104.70
2018-03-23T15:32:06.805Z,102.83
2018-03-23T15:34:35.976Z,102.97
2018-03-23T15:37:05.158Z,100.10
2018-03-23T15:39:34.371Z,95.53
2018-03-23T15:42:03.527Z,94.87
2018-03-23T15:44:32.694Z,96.03
2018-03-23T15:47:01.874Z,88.87
2018-03-23T15:49:31.036Z,82.43
2018-03-23T15:52:00.211Z,82.50
2018-03-23T15:54:29.372Z,82.60
2018-03-23T15:56:58.556Z,78.47
2018-03-23T15:59:27.723Z,82.67
2018-03-23T16:01:56.938Z,78.43
2018-03-23T16:04:26.108Z,78.23
2018-03-23T16:09:29.619Z,71.47
2018-03-23T16:11:58.797Z,76.10
2018-03-23T16:14:27.992Z,73.30
2018-03-23T16:16:57.176Z,68.93
2018-03-23T16:19:26.336Z,66.17
2018-03-23T16:21:55.515Z,67.47
2018-03-23T16:24:24.683Z,67.60
2018-03-23T16:26:53.880Z,67.17
2018-03-23T16:29:23.056Z,66.90
2018-03-23T16:31:52.233Z,69.50
2018-03-23T16:34:21.390Z,66.20
2018-03-23T16:36:50.579Z,65.10
2018-03-23T16:39:19.753Z,63.90
2018-03-23T16:41:48.945Z,69.97
2018-03-23T16:44:18.107Z,66.27
2018-03-23T16:46:47.294Z,65.73
2018-03-23T16:49:16.452Z,66.83
2018-03-23T16:51:45.652Z,67.77
2018-03-23T16:54:14.813Z,67.20
2018-03-23T16:56:43.997Z,65.00
2018-03-23T16:59:13.156Z,70.10
2018-03-23T17:01:42.352Z,69.50
2018-03-23T17:04:11.516Z,76.97
2018-03-23T17:06:40.701Z,71.20
2018-03-23T17:09:09.856Z,78.00
2018-03-23T17:11:39.028Z,73.50
2018-03-23T17:14:08.204Z,72.53
2018-03-23T17:16:37.382Z,69.90
2018-03-23T17:19:06.548Z,75.83
2018-03-23T17:21:35.728Z,78.77
2018-03-23T17:24:04.891Z,80.10
2018-03-23T17:26:34.072Z,79.97
2018-03-23T17:29:03.249Z,68.50
2018-03-23T17:31:32.450Z,71.00
2018-03-23T17:34:01.616Z,75.37
2018-03-23T17:36:30.817Z,74.93
2018-03-23T17:38:59.983Z,68.50
2018-03-23T17:41:29.178Z,87.73
2018-03-23T17:43:58.351Z,73.97
2018-03-23T17:46:28.284Z,70.20
2018-03-23T17:48:57.455Z,78.17
2018-03-23T17:51:26.674Z,78.27
2018-03-23T17:53:55.836Z,76.57
2018-03-23T17:56:25.032Z,77.83
2018-03-23T17:58:54.192Z,77.17
2018-03-23T18:01:23.377Z,80.27
2018-03-23T18:03:52.544Z,78.93
2018-03-23T18:06:21.770Z,78.07
2018-03-23T18:08:50.937Z,78.50
2018-03-23T18:11:20.119Z,79.57
2018-03-23T18:13:49.300Z,71.33
2018-03-23T18:16:18.475Z,78.30
2018-03-23T18:18:47.660Z,76.40
2018-03-23T18:23:52.377Z,77.07
2018-03-23T18:26:21.550Z,75.57
2018-03-23T18:28:50.724Z,82.73
2018-03-23T18:31:20.759Z,86.73
2018-03-23T18:33:50.062Z,83.43
2018-03-23T18:36:19.290Z,79.40
2018-03-23T18:38:48.527Z,81.93
2018-03-23T18:41:17.763Z,89.40
2018-03-23T18:43:47.543Z,82.63
2018-03-23T18:46:16.792Z,77.13
2018-03-23T18:48:46.053Z,80.70
2018-03-23T18:51:15.281Z,79.37
2018-03-23T18:53:44.534Z,81.57
2018-03-23T18:56:13.930Z,81.87
2018-03-23T18:58:43.171Z,84.60
2018-03-23T19:01:12.381Z,84.20
2018-03-23T19:03:41.573Z,81.43
2018-03-23T19:06:10.737Z,81.43
2018-03-23T19:08:39.928Z,82.20
2018-03-23T19:11:09.083Z,76.73
2018-03-23T19:13:38.277Z,79.30
2018-03-23T19:16:07.444Z,77.63
2018-03-23T19:18:36.720Z,79.03
2018-03-23T19:21:05.902Z,74.20
2018-03-23T19:23:35.094Z,76.73
2018-03-23T19:26:04.252Z,74.90
2018-03-23T19:28:33.436Z,80.93
2018-03-23T19:31:02.595Z,76.80
2018-03-23T19:33:31.799Z,73.27
2018-03-23T19:36:00.959Z,71.67
2018-03-23T19:38:30.162Z,67.90
2018-03-23T19:40:59.328Z,74.30
2018-03-23T19:43:28.525Z,71.87
2018-03-23T19:45:57.683Z,73.43
2018-03-23T19:48:26.862Z,71.50
2018-03-23T19:50:56.034Z,70.63
2018-03-23T19:53:25.224Z,78.50
2018-03-23T19:55:54.397Z,63.97
2018-03-23T19:58:23.583Z,76.27
2018-03-23T20:00:52.744Z,80.70
2018-03-23T20:03:21.933Z,71.57
2018-03-23T20:05:51.229Z,73.10
2018-03-23T20:08:20.418Z,80.60
2018-03-23T20:10:49.712Z,78.83
2018-03-23T20:13:18.896Z,90.73
2018-03-23T20:15:48.058Z,78.17
2018-03-23T20:18:21.171Z,76.47
2018-03-23T20:20:56.294Z,82.47
2018-03-23T20:23:25.481Z,90.67
2018-03-23T20:25:54.644Z,84.50
2018-03-23T20:28:29.680Z,84.30
2018-03-23T20:30:58.840Z,80.43
2018-03-23T20:33:28.033Z,78.73
2018-03-23T20:35:57.196Z,75.27
2018-03-23T20:38:26.399Z,70.07
2018-03-23T20:40:55.634Z,63.27
2018-03-23T20:43:24.815Z,80.47
2018-03-23T20:45:53.967Z,69.33
2018-03-23T20:48:23.151Z,80.83
2018-03-23T20:50:52.307Z,72.93
2018-03-23T20:53:21.501Z,70.07
2018-03-23T20:55:50.672Z,81.23
2018-03-23T20:58:19.861Z,73.53
2018-03-23T21:00:49.020Z,75.83
2018-03-23T21:03:18.204Z,74.03
2018-03-23T21:05:48.047Z,63.10
2018-03-23T21:08:17.244Z,64.50
2018-03-23T21:10:46.409Z,63.07
2018-03-23T21:13:15.588Z,60.80
2018-03-23T21:15:44.768Z,59.20
2018-03-23T21:18:13.947Z,64.50
2018-03-23T21:20:43.116Z,68.63
2018-03-23T21:23:12.304Z,70.47
2018-03-23T21:25:41.464Z,64.03
2018-03-23T21:28:10.644Z,65.37
2018-03-23T21:30:39.817Z,78.87
2018-03-23T21:33:09.003Z,71.83
2018-03-23T21:35:38.165Z,81.80
2018-03-23T21:38:07.339Z,75.83
2018-03-23T21:40:36.504Z,263.63
2018-03-23T21:43:05.688Z,81.63
2018-03-23T21:45:34.848Z,81.53
2018-03-23T21:48:04.042Z,74.17
2018-03-23T21:50:33.203Z,86.33
2018-03-23T21:53:02.392Z,85.63
2018-03-23T21:55:31.548Z,79.60
2018-03-23T21:58:00.748Z,79.10
2018-03-23T22:00:29.933Z,74.43
2018-03-23T22:02:59.125Z,75.33
2018-03-23T22:05:28.346Z,75.13
2018-03-23T22:07:57.528Z,76.87
2018-03-23T22:10:26.715Z,77.33
2018-03-23T22:12:55.897Z,72.30
2018-03-23T22:15:25.096Z,72.33
2018-03-23T22:17:54.296Z,77.87
2018-03-23T22:20:23.480Z,73.57
2018-03-23T22:22:52.635Z,76.07
2018-03-23T22:25:21.823Z,75.23
2018-03-23T22:27:51.020Z,76.17
2018-03-23T22:30:20.382Z,76.73
2018-03-23T22:32:49.547Z,79.03
2018-03-23T22:35:18.715Z,73.37
2018-03-23T22:37:47.887Z,75.30
2018-03-23T22:40:17.084Z,84.50
2018-03-23T22:42:46.258Z,71.13
2018-03-23T22:45:15.448Z,76.93
2018-03-23T22:47:44.661Z,75.43
2018-03-23T22:50:13.916Z,79.90
2018-03-23T22:52:43.082Z,77.03
2018-03-23T22:55:12.254Z,76.73
2018-03-23T22:57:41.416Z,76.70
2018-03-23T23:00:10.599Z,77.03
2018-03-23T23:02:39.755Z,80.03
2018-03-23T23:05:08.931Z,75.97
2018-03-23T23:07:38.113Z,72.83
2018-03-23T23:10:07.288Z,75.57
2018-03-23T23:12:36.467Z,75.20
2018-03-23T23:15:05.623Z,77.80
2018-03-23T23:17:34.787Z,80.93
2018-03-23T23:20:04.004Z,72.97
2018-03-23T23:22:33.153Z,77.83
2018-03-23T23:25:02.346Z,78.57
2018-03-23T23:27:31.508Z,73.07
2018-03-23T23:30:00.704Z,73.70
2018-03-23T23:32:29.868Z,82.37
2018-03-23T23:34:59.064Z,76.33
2018-03-23T23:40:01.724Z,77.47
2018-03-23T23:42:30.888Z,72.70
2018-03-23T23:45:00.070Z,75.43
2018-03-23T23:47:29.250Z,74.13
2018-03-23T23:49:58.436Z,73.07
2018-03-23T23:52:27.648Z,76.00
2018-03-23T23:54:56.824Z,72.80
2018-03-23T23:57:25.988Z,74.90
2018-03-23T23:59:55.173Z,79.37
